Terminal Aerodrome Forecast
Issued by NWS

Home | Current Version | Previous Version | Text Only | Print | Product List | Glossary On
Versions: 1 2 3 4 5 6 7 8 9 10 11 12 13 14 15 16 17 18 19 20
000
FTUS46 KEKA 271735
TAFCEC
TAF
KCEC 271735Z 2718/2818 16014KT P6SM SCT020 OVC050
     FM280000 17011KT 5SM -RA BR OVC025
     FM281200 16014KT 5SM -RA BKN015 OVC025=

USA.gov is the U.S. government's official web portal to all federal, state and local government web resources and services.